sensor_id;sensor_type;location;lat;lon;timestamp;pressure;altitude;pressure_sealevel;temperature;humidity
21401;BME280;18038;50.166;18.908;2022-07-06T00:01:39;98127.69;;;15.18;80.08
21401;BME280;18038;50.166;18.908;2022-07-06T00:04:44;98138.91;;;15.15;80.05
21401;BME280;18038;50.166;18.908;2022-07-06T00:07:50;98128.13;;;15.15;79.46
21401;BME280;18038;50.166;18.908;2022-07-06T00:10:56;98133.44;;;15.22;79.69
21401;BME280;18038;50.166;18.908;2022-07-06T00:14:02;98134.69;;;15.19;79.94
21401;BME280;18038;50.166;18.908;2022-07-06T00:17:10;98134.69;;;15.19;79.84
21401;BME280;18038;50.166;18.908;2022-07-06T00:20:16;98135.22;;;15.28;79.58
21401;BME280;18038;50.166;18.908;2022-07-06T00:23:22;98133.75;;;15.32;79.18
21401;BME280;18038;50.166;18.908;2022-07-06T00:26:28;98136.44;;;15.32;79.34
21401;BME280;18038;50.166;18.908;2022-07-06T00:29:33;98140.56;;;15.35;78.96
21401;BME280;18038;50.166;18.908;2022-07-06T00:32:42;98140.03;;;15.26;79.32
21401;BME280;18038;50.166;18.908;2022-07-06T00:35:47;98138.75;;;15.29;79.24
21401;BME280;18038;50.166;18.908;2022-07-06T00:38:53;98145.41;;;15.26;79.44
21401;BME280;18038;50.166;18.908;2022-07-06T00:41:59;98149.94;;;15.26;79.60
21401;BME280;18038;50.166;18.908;2022-07-06T00:45:06;98150.19;;;15.24;79.38
21401;BME280;18038;50.166;18.908;2022-07-06T00:48:15;98140.91;;;15.20;79.07
21401;BME280;18038;50.166;18.908;2022-07-06T00:51:26;98152.47;;;15.20;78.72
21401;BME280;18038;50.166;18.908;2022-07-06T00:54:36;98150.47;;;15.16;79.29
21401;BME280;18038;50.166;18.908;2022-07-06T00:57:44;98148.56;;;14.98;79.06
21401;BME280;18038;50.166;18.908;2022-07-06T01:00:51;98146.50;;;15.00;79.09
21401;BME280;18038;50.166;18.908;2022-07-06T01:03:59;98153.50;;;15.01;79.10
21401;BME280;18038;50.166;18.908;2022-07-06T01:07:05;98131.81;;;14.96;78.92
21401;BME280;18038;50.166;18.908;2022-07-06T01:10:13;98129.53;;;14.99;79.14
21401;BME280;18038;50.166;18.908;2022-07-06T01:13:20;98116.34;;;14.91;79.18
21401;BME280;18038;50.166;18.908;2022-07-06T01:16:26;98119.28;;;14.90;79.35
21401;BME280;18038;50.166;18.908;2022-07-06T01:19:35;98118.81;;;14.93;79.52
21401;BME280;18038;50.166;18.908;2022-07-06T01:22:44;98124.38;;;14.98;79.34
21401;BME280;18038;50.166;18.908;2022-07-06T01:25:54;98121.66;;;14.98;78.97
21401;BME280;18038;50.166;18.908;2022-07-06T01:29:17;98126.44;;;14.96;78.90
21401;BME280;18038;50.166;18.908;2022-07-06T01:32:28;98120.31;;;15.07;78.73
21401;BME280;18038;50.166;18.908;2022-07-06T01:35:36;98119.16;;;15.03;78.90
21401;BME280;18038;50.166;18.908;2022-07-06T01:38:50;98132.81;;;15.01;78.23
21401;BME280;18038;50.166;18.908;2022-07-06T01:41:56;98132.59;;;15.03;78.62
21401;BME280;18038;50.166;18.908;2022-07-06T01:45:03;98126.25;;;14.97;77.76
21401;BME280;18038;50.166;18.908;2022-07-06T01:48:11;98129.78;;;14.91;78.23
21401;BME280;18038;50.166;18.908;2022-07-06T01:51:24;98135.25;;;14.78;78.43
21401;BME280;18038;50.166;18.908;2022-07-06T01:54:39;98131.75;;;14.77;77.97
21401;BME280;18038;50.166;18.908;2022-07-06T01:57:51;98125.22;;;14.67;77.99
21401;BME280;18038;50.166;18.908;2022-07-06T02:00:58;98129.16;;;14.64;78.48
21401;BME280;18038;50.166;18.908;2022-07-06T02:04:06;98127.81;;;14.55;78.25
21401;BME280;18038;50.166;18.908;2022-07-06T02:07:13;98128.06;;;14.47;78.07
21401;BME280;18038;50.166;18.908;2022-07-06T02:10:21;98121.09;;;14.39;78.92
21401;BME280;18038;50.166;18.908;2022-07-06T02:13:27;98109.53;;;14.39;78.43
21401;BME280;18038;50.166;18.908;2022-07-06T02:16:35;98110.56;;;14.38;78.39
21401;BME280;18038;50.166;18.908;2022-07-06T02:19:48;98100.63;;;14.38;78.40
21401;BME280;18038;50.166;18.908;2022-07-06T02:22:53;98114.50;;;14.35;78.69
21401;BME280;18038;50.166;18.908;2022-07-06T02:26:09;98116.81;;;14.31;78.07
21401;BME280;18038;50.166;18.908;2022-07-06T02:29:35;98126.16;;;14.22;78.54
21401;BME280;18038;50.166;18.908;2022-07-06T02:32:50;98135.44;;;14.26;78.36
21401;BME280;18038;50.166;18.908;2022-07-06T02:35:55;98141.19;;;14.30;78.19
21401;BME280;18038;50.166;18.908;2022-07-06T02:39:04;98132.94;;;14.31;78.49
21401;BME280;18038;50.166;18.908;2022-07-06T02:42:21;98138.06;;;14.33;78.64
21401;BME280;18038;50.166;18.908;2022-07-06T02:45:27;98133.81;;;14.25;78.30
21401;BME280;18038;50.166;18.908;2022-07-06T02:48:33;98139.19;;;14.25;78.93
21401;BME280;18038;50.166;18.908;2022-07-06T02:51:40;98135.00;;;14.29;78.89
21401;BME280;18038;50.166;18.908;2022-07-06T02:54:58;98136.25;;;14.27;78.44
21401;BME280;18038;50.166;18.908;2022-07-06T02:58:14;98142.84;;;14.31;78.12
21401;BME280;18038;50.166;18.908;2022-07-06T03:01:20;98150.69;;;14.32;78.10
21401;BME280;18038;50.166;18.908;2022-07-06T03:04:27;98136.53;;;14.19;78.56
21401;BME280;18038;50.166;18.908;2022-07-06T03:07:33;98148.91;;;14.20;78.44
21401;BME280;18038;50.166;18.908;2022-07-06T03:10:46;98141.25;;;14.23;78.25
21401;BME280;18038;50.166;18.908;2022-07-06T03:14:07;98140.63;;;14.21;78.53
21401;BME280;18038;50.166;18.908;2022-07-06T03:17:18;98152.84;;;14.17;78.62
21401;BME280;18038;50.166;18.908;2022-07-06T03:20:25;98149.13;;;14.18;78.51
21401;BME280;18038;50.166;18.908;2022-07-06T03:23:37;98151.63;;;14.13;78.87
21401;BME280;18038;50.166;18.908;2022-07-06T03:26:43;98158.00;;;14.19;78.68
21401;BME280;18038;50.166;18.908;2022-07-06T03:29:52;98163.75;;;14.22;78.34
21401;BME280;18038;50.166;18.908;2022-07-06T03:32:58;98162.75;;;14.23;78.89
21401;BME280;18038;50.166;18.908;2022-07-06T03:36:06;98165.44;;;14.23;78.21
21401;BME280;18038;50.166;18.908;2022-07-06T03:39:12;98161.59;;;14.06;78.33
21401;BME280;18038;50.166;18.908;2022-07-06T03:42:19;98164.06;;;14.07;78.71
21401;BME280;18038;50.166;18.908;2022-07-06T03:45:28;98171.47;;;14.12;78.50
21401;BME280;18038;50.166;18.908;2022-07-06T03:48:35;98166.53;;;14.09;78.44
21401;BME280;18038;50.166;18.908;2022-07-06T03:51:42;98145.84;;;14.16;78.28
21401;BME280;18038;50.166;18.908;2022-07-06T03:54:49;98172.63;;;14.29;77.72
21401;BME280;18038;50.166;18.908;2022-07-06T03:58:00;98167.06;;;14.24;78.13
21401;BME280;18038;50.166;18.908;2022-07-06T04:01:12;98160.00;;;14.30;78.12
21401;BME280;18038;50.166;18.908;2022-07-06T04:04:18;98171.81;;;14.29;77.37
21401;BME280;18038;50.166;18.908;2022-07-06T04:07:24;98183.81;;;14.26;77.79
21401;BME280;18038;50.166;18.908;2022-07-06T04:10:30;98177.19;;;14.29;77.38
21401;BME280;18038;50.166;18.908;2022-07-06T04:13:37;98186.34;;;14.46;77.65
21401;BME280;18038;50.166;18.908;2022-07-06T04:16:46;98189.91;;;14.40;77.05
21401;BME280;18038;50.166;18.908;2022-07-06T04:19:52;98187.75;;;14.24;77.71
21401;BME280;18038;50.166;18.908;2022-07-06T04:22:58;98201.03;;;14.44;77.14
21401;BME280;18038;50.166;18.908;2022-07-06T04:26:04;98200.84;;;14.45;77.15
21401;BME280;18038;50.166;18.908;2022-07-06T04:29:12;98200.41;;;14.48;76.95
21401;BME280;18038;50.166;18.908;2022-07-06T04:32:21;98210.44;;;14.66;76.56
21401;BME280;18038;50.166;18.908;2022-07-06T04:35:28;98212.47;;;14.71;76.24
21401;BME280;18038;50.166;18.908;2022-07-06T04:38:34;98217.38;;;14.80;76.21
21401;BME280;18038;50.166;18.908;2022-07-06T04:41:42;98228.31;;;14.86;75.34
21401;BME280;18038;50.166;18.908;2022-07-06T04:44:47;98219.66;;;14.84;75.62
21401;BME280;18038;50.166;18.908;2022-07-06T04:47:56;98214.03;;;14.85;75.38
21401;BME280;18038;50.166;18.908;2022-07-06T04:51:02;98212.78;;;14.88;75.02
21401;BME280;18038;50.166;18.908;2022-07-06T04:54:08;98217.28;;;14.94;74.75
21401;BME280;18038;50.166;18.908;2022-07-06T04:57:14;98221.50;;;14.83;75.27
21401;BME280;18038;50.166;18.908;2022-07-06T05:00:20;98223.91;;;14.91;74.85
21401;BME280;18038;50.166;18.908;2022-07-06T05:03:30;98222.06;;;14.92;74.09
21401;BME280;18038;50.166;18.908;2022-07-06T05:06:38;98228.91;;;14.88;73.72
21401;BME280;18038;50.166;18.908;2022-07-06T05:09:44;98224.22;;;14.76;73.89
21401;BME280;18038;50.166;18.908;2022-07-06T05:12:54;98221.09;;;14.86;73.91
21401;BME280;18038;50.166;18.908;2022-07-06T05:16:02;98222.50;;;14.89;73.24
21401;BME280;18038;50.166;18.908;2022-07-06T05:19:11;98216.91;;;14.90;73.91
21401;BME280;18038;50.166;18.908;2022-07-06T05:22:19;98204.22;;;14.97;73.46
21401;BME280;18038;50.166;18.908;2022-07-06T05:25:27;98216.75;;;15.10;72.67
21401;BME280;18038;50.166;18.908;2022-07-06T05:28:36;98219.03;;;15.32;72.23
21401;BME280;18038;50.166;18.908;2022-07-06T05:31:46;98214.47;;;15.32;72.34
21401;BME280;18038;50.166;18.908;2022-07-06T05:34:56;98210.88;;;15.63;70.65
21401;BME280;18038;50.166;18.908;2022-07-06T05:38:22;98211.25;;;15.85;70.06
21401;BME280;18038;50.166;18.908;2022-07-06T05:41:28;98217.91;;;16.01;70.20
21401;BME280;18038;50.166;18.908;2022-07-06T05:44:36;98224.13;;;16.02;69.92
21401;BME280;18038;50.166;18.908;2022-07-06T05:47:42;98225.00;;;16.32;68.52
21401;BME280;18038;50.166;18.908;2022-07-06T05:51:03;98242.25;;;16.43;68.75
21401;BME280;18038;50.166;18.908;2022-07-06T05:54:09;98232.75;;;16.41;68.90
21401;BME280;18038;50.166;18.908;2022-07-06T05:57:16;98248.44;;;16.62;67.84
21401;BME280;18038;50.166;18.908;2022-07-06T06:00:23;98254.34;;;16.71;67.04
21401;BME280;18038;50.166;18.908;2022-07-06T06:03:35;98249.50;;;16.61;67.17
21401;BME280;18038;50.166;18.908;2022-07-06T06:06:45;98252.50;;;16.53;68.06
21401;BME280;18038;50.166;18.908;2022-07-06T06:09:51;98256.09;;;16.17;68.15
21401;BME280;18038;50.166;18.908;2022-07-06T06:12:57;98239.00;;;16.04;68.72
21401;BME280;18038;50.166;18.908;2022-07-06T06:16:04;98264.78;;;16.19;69.02
21401;BME280;18038;50.166;18.908;2022-07-06T06:19:11;98278.81;;;16.39;67.41
21401;BME280;18038;50.166;18.908;2022-07-06T06:22:20;98277.31;;;16.43;67.57
21401;BME280;18038;50.166;18.908;2022-07-06T06:25:30;98290.50;;;16.33;67.86
21401;BME280;18038;50.166;18.908;2022-07-06T06:28:37;98291.19;;;16.10;68.35
21401;BME280;18038;50.166;18.908;2022-07-06T06:31:44;98300.47;;;15.96;68.90
21401;BME280;18038;50.166;18.908;2022-07-06T06:34:50;98291.91;;;15.80;69.91
21401;BME280;18038;50.166;18.908;2022-07-06T06:37:58;98300.09;;;15.92;70.20
21401;BME280;18038;50.166;18.908;2022-07-06T06:41:04;98297.47;;;16.04;69.57
21401;BME280;18038;50.166;18.908;2022-07-06T06:44:10;98292.16;;;16.16;70.06
21401;BME280;18038;50.166;18.908;2022-07-06T06:47:16;98292.75;;;16.18;69.03
21401;BME280;18038;50.166;18.908;2022-07-06T06:50:22;98288.41;;;16.17;69.22
21401;BME280;18038;50.166;18.908;2022-07-06T06:53:31;98288.41;;;16.35;67.84
21401;BME280;18038;50.166;18.908;2022-07-06T06:56:41;98291.97;;;16.47;68.58
21401;BME280;18038;50.166;18.908;2022-07-06T06:59:49;98291.13;;;16.65;67.87
21401;BME280;18038;50.166;18.908;2022-07-06T07:02:55;98284.63;;;16.73;67.41
21401;BME280;18038;50.166;18.908;2022-07-06T07:06:01;98286.34;;;16.67;66.99
21401;BME280;18038;50.166;18.908;2022-07-06T07:09:12;98289.34;;;16.59;66.36
21401;BME280;18038;50.166;18.908;2022-07-06T07:12:19;98293.78;;;16.53;66.59
21401;BME280;18038;50.166;18.908;2022-07-06T07:15:25;98296.88;;;16.20;67.47
21401;BME280;18038;50.166;18.908;2022-07-06T07:18:37;98299.81;;;16.19;67.99
21401;BME280;18038;50.166;18.908;2022-07-06T07:21:42;98305.34;;;16.24;67.77
21401;BME280;18038;50.166;18.908;2022-07-06T07:24:51;98313.59;;;16.10;67.81
21401;BME280;18038;50.166;18.908;2022-07-06T07:27:57;98312.06;;;15.96;67.58
21401;BME280;18038;50.166;18.908;2022-07-06T07:31:04;98308.38;;;15.65;68.14
21401;BME280;18038;50.166;18.908;2022-07-06T07:34:10;98320.16;;;15.71;67.69
21401;BME280;18038;50.166;18.908;2022-07-06T07:37:15;98320.97;;;15.72;66.95
21401;BME280;18038;50.166;18.908;2022-07-06T07:40:24;98322.34;;;15.81;66.77
21401;BME280;18038;50.166;18.908;2022-07-06T07:43:30;98324.88;;;15.76;65.96
21401;BME280;18038;50.166;18.908;2022-07-06T07:46:36;98331.84;;;16.27;64.38
21401;BME280;18038;50.166;18.908;2022-07-06T07:49:42;98323.94;;;16.81;63.51
21401;BME280;18038;50.166;18.908;2022-07-06T07:52:47;98329.38;;;17.34;60.34
21401;BME280;18038;50.166;18.908;2022-07-06T07:55:56;98323.53;;;18.32;57.98
21401;BME280;18038;50.166;18.908;2022-07-06T07:59:01;98323.16;;;18.80;56.44
21401;BME280;18038;50.166;18.908;2022-07-06T08:02:08;98315.03;;;19.09;54.86
21401;BME280;18038;50.166;18.908;2022-07-06T08:05:14;98326.78;;;19.14;54.50
21401;BME280;18038;50.166;18.908;2022-07-06T08:08:20;98319.59;;;19.20;54.79
21401;BME280;18038;50.166;18.908;2022-07-06T08:11:29;98324.03;;;19.43;54.08
21401;BME280;18038;50.166;18.908;2022-07-06T08:14:35;98320.31;;;19.15;54.69
21401;BME280;18038;50.166;18.908;2022-07-06T08:17:41;98320.63;;;18.73;54.55
21401;BME280;18038;50.166;18.908;2022-07-06T08:20:47;98324.66;;;18.88;54.63
21401;BME280;18038;50.166;18.908;2022-07-06T08:24:20;98323.41;;;19.07;54.54
21401;BME280;18038;50.166;18.908;2022-07-06T08:27:28;98319.81;;;18.73;54.65
21401;BME280;18038;50.166;18.908;2022-07-06T08:30:34;98313.13;;;19.09;53.88
21401;BME280;18038;50.166;18.908;2022-07-06T08:33:39;98322.97;;;19.27;53.54
21401;BME280;18038;50.166;18.908;2022-07-06T08:36:45;98313.63;;;19.06;53.68
21401;BME280;18038;50.166;18.908;2022-07-06T08:39:51;98317.72;;;19.54;51.90
21401;BME280;18038;50.166;18.908;2022-07-06T08:43:00;98315.44;;;19.46;53.71
21401;BME280;18038;50.166;18.908;2022-07-06T08:46:13;98310.09;;;19.06;53.11
21401;BME280;18038;50.166;18.908;2022-07-06T08:49:19;98318.09;;;19.12;54.38
21401;BME280;18038;50.166;18.908;2022-07-06T08:52:25;98315.56;;;19.23;53.23
21401;BME280;18038;50.166;18.908;2022-07-06T08:55:32;98317.13;;;19.19;53.24
21401;BME280;18038;50.166;18.908;2022-07-06T08:58:42;98315.44;;;19.29;53.45
21401;BME280;18038;50.166;18.908;2022-07-06T09:01:47;98306.56;;;19.51;51.57
21401;BME280;18038;50.166;18.908;2022-07-06T09:05:02;98297.53;;;19.79;50.78
21401;BME280;18038;50.166;18.908;2022-07-06T09:08:18;98294.19;;;19.94;50.31
21401;BME280;18038;50.166;18.908;2022-07-06T09:11:25;98307.38;;;20.24;49.08
21401;BME280;18038;50.166;18.908;2022-07-06T09:14:39;98308.22;;;20.24;48.94
21401;BME280;18038;50.166;18.908;2022-07-06T09:17:49;98312.88;;;20.29;47.86
21401;BME280;18038;50.166;18.908;2022-07-06T09:21:04;98302.31;;;20.55;47.40
21401;BME280;18038;50.166;18.908;2022-07-06T09:24:12;98302.56;;;20.31;48.59
21401;BME280;18038;50.166;18.908;2022-07-06T09:27:18;98299.44;;;20.17;48.48
21401;BME280;18038;50.166;18.908;2022-07-06T09:30:30;98301.19;;;20.29;46.96
21401;BME280;18038;50.166;18.908;2022-07-06T09:33:38;98304.25;;;20.32;46.86
21401;BME280;18038;50.166;18.908;2022-07-06T09:36:46;98309.97;;;20.58;47.03
21401;BME280;18038;50.166;18.908;2022-07-06T09:39:53;98307.09;;;20.42;46.66
21401;BME280;18038;50.166;18.908;2022-07-06T09:43:13;98309.03;;;20.69;45.78
21401;BME280;18038;50.166;18.908;2022-07-06T09:46:23;98303.53;;;20.64;46.48
21401;BME280;18038;50.166;18.908;2022-07-06T09:49:30;98297.22;;;20.80;45.79
21401;BME280;18038;50.166;18.908;2022-07-06T09:52:37;98302.59;;;21.29;45.30
21401;BME280;18038;50.166;18.908;2022-07-06T09:55:44;98305.75;;;21.48;45.74
21401;BME280;18038;50.166;18.908;2022-07-06T09:59:12;98307.22;;;21.02;43.31
21401;BME280;18038;50.166;18.908;2022-07-06T10:02:24;98297.41;;;21.28;44.63
21401;BME280;18038;50.166;18.908;2022-07-06T10:05:31;98312.13;;;21.64;44.23
21401;BME280;18038;50.166;18.908;2022-07-06T10:08:39;98295.19;;;22.42;41.93
21401;BME280;18038;50.166;18.908;2022-07-06T10:11:48;98296.22;;;23.45;40.64
21401;BME280;18038;50.166;18.908;2022-07-06T10:15:22;98301.66;;;23.91;38.00
21401;BME280;18038;50.166;18.908;2022-07-06T10:18:33;98294.59;;;23.23;41.08
21401;BME280;18038;50.166;18.908;2022-07-06T10:21:41;98301.41;;;23.62;40.54
21401;BME280;18038;50.166;18.908;2022-07-06T10:24:48;98293.97;;;24.83;37.45
21401;BME280;18038;50.166;18.908;2022-07-06T10:27:56;98295.66;;;24.69;37.68
21401;BME280;18038;50.166;18.908;2022-07-06T10:31:02;98299.38;;;24.39;38.38
21401;BME280;18038;50.166;18.908;2022-07-06T10:34:14;98290.13;;;24.90;36.10
21401;BME280;18038;50.166;18.908;2022-07-06T10:37:23;98288.25;;;25.59;35.68
21401;BME280;18038;50.166;18.908;2022-07-06T10:40:34;98300.69;;;25.75;34.44
21401;BME280;18038;50.166;18.908;2022-07-06T10:43:54;98306.53;;;24.04;37.26
21401;BME280;18038;50.166;18.908;2022-07-06T10:47:00;98304.31;;;24.16;36.05
21401;BME280;18038;50.166;18.908;2022-07-06T10:50:10;98306.69;;;24.49;35.34
21401;BME280;18038;50.166;18.908;2022-07-06T10:53:20;98309.44;;;24.44;35.84
21401;BME280;18038;50.166;18.908;2022-07-06T10:56:37;98307.78;;;24.53;36.42
21401;BME280;18038;50.166;18.908;2022-07-06T11:00:02;98310.59;;;24.22;38.59
21401;BME280;18038;50.166;18.908;2022-07-06T11:03:32;98319.69;;;23.61;38.82
21401;BME280;18038;50.166;18.908;2022-07-06T11:06:45;98323.19;;;23.21;40.21
21401;BME280;18038;50.166;18.908;2022-07-06T11:09:55;98312.03;;;23.17;40.39
21401;BME280;18038;50.166;18.908;2022-07-06T11:13:02;98326.28;;;22.66;42.14
21401;BME280;18038;50.166;18.908;2022-07-06T11:16:08;98328.88;;;22.31;42.09
21401;BME280;18038;50.166;18.908;2022-07-06T11:19:16;98329.53;;;21.68;44.25
21401;BME280;18038;50.166;18.908;2022-07-06T11:22:27;98331.25;;;21.74;44.55
21401;BME280;18038;50.166;18.908;2022-07-06T11:25:35;98331.25;;;21.74;45.86
21401;BME280;18038;50.166;18.908;2022-07-06T11:28:45;98332.81;;;21.70;46.21
21401;BME280;18038;50.166;18.908;2022-07-06T11:31:55;98330.19;;;21.81;45.00
21401;BME280;18038;50.166;18.908;2022-07-06T11:35:03;98334.44;;;21.71;45.11
21401;BME280;18038;50.166;18.908;2022-07-06T11:41:44;98332.16;;;21.90;44.53
21401;BME280;18038;50.166;18.908;2022-07-06T11:44:53;98332.25;;;22.06;44.62
21401;BME280;18038;50.166;18.908;2022-07-06T11:48:09;98331.06;;;22.34;42.99
21401;BME280;18038;50.166;18.908;2022-07-06T11:51:16;98328.50;;;22.70;42.09
21401;BME280;18038;50.166;18.908;2022-07-06T11:54:24;98337.34;;;23.13;40.65
21401;BME280;18038;50.166;18.908;2022-07-06T11:57:35;98350.47;;;23.46;40.77
21401;BME280;18038;50.166;18.908;2022-07-06T12:00:40;98335.19;;;23.25;40.65
21401;BME280;18038;50.166;18.908;2022-07-06T12:03:46;98336.84;;;23.92;40.11
21401;BME280;18038;50.166;18.908;2022-07-06T12:06:52;98327.84;;;23.97;39.40
21401;BME280;18038;50.166;18.908;2022-07-06T12:09:58;98327.06;;;23.66;38.96
21401;BME280;18038;50.166;18.908;2022-07-06T12:13:06;98325.44;;;23.65;37.46
21401;BME280;18038;50.166;18.908;2022-07-06T12:16:15;98325.41;;;23.75;37.59
21401;BME280;18038;50.166;18.908;2022-07-06T12:19:22;98315.06;;;23.67;36.89
21401;BME280;18038;50.166;18.908;2022-07-06T12:22:28;98321.31;;;23.78;38.53
21401;BME280;18038;50.166;18.908;2022-07-06T12:25:35;98318.53;;;24.08;36.97
21401;BME280;18038;50.166;18.908;2022-07-06T12:28:59;98323.78;;;23.59;37.64
21401;BME280;18038;50.166;18.908;2022-07-06T12:32:14;98318.28;;;23.18;39.95
21401;BME280;18038;50.166;18.908;2022-07-06T12:35:25;98317.78;;;23.36;39.83
21401;BME280;18038;50.166;18.908;2022-07-06T12:38:32;98305.19;;;23.04;39.91
21401;BME280;18038;50.166;18.908;2022-07-06T12:41:44;98308.84;;;22.57;41.60
21401;BME280;18038;50.166;18.908;2022-07-06T12:44:54;98313.03;;;21.75;42.12
21401;BME280;18038;50.166;18.908;2022-07-06T12:48:03;98320.69;;;21.83;42.60
21401;BME280;18038;50.166;18.908;2022-07-06T12:51:09;98317.16;;;21.45;42.90
21401;BME280;18038;50.166;18.908;2022-07-06T12:54:16;98313.97;;;21.96;43.71
21401;BME280;18038;50.166;18.908;2022-07-06T12:57:24;98312.09;;;22.49;42.71
21401;BME280;18038;50.166;18.908;2022-07-06T13:00:44;98307.41;;;22.39;42.28
21401;BME280;18038;50.166;18.908;2022-07-06T13:03:54;98299.09;;;22.14;41.93
21401;BME280;18038;50.166;18.908;2022-07-06T13:07:04;98301.94;;;22.34;41.99
21401;BME280;18038;50.166;18.908;2022-07-06T13:10:12;98301.22;;;22.49;41.52
21401;BME280;18038;50.166;18.908;2022-07-06T13:13:19;98298.53;;;22.64;40.85
21401;BME280;18038;50.166;18.908;2022-07-06T13:16:28;98297.34;;;22.40;40.29
21401;BME280;18038;50.166;18.908;2022-07-06T13:19:36;98301.41;;;21.90;41.44
21401;BME280;18038;50.166;18.908;2022-07-06T13:22:45;98294.50;;;22.14;41.21
21401;BME280;18038;50.166;18.908;2022-07-06T13:25:51;98299.91;;;22.09;39.98
21401;BME280;18038;50.166;18.908;2022-07-06T13:28:56;98293.50;;;22.26;39.43
21401;BME280;18038;50.166;18.908;2022-07-06T13:32:07;98299.16;;;22.19;38.81
21401;BME280;18038;50.166;18.908;2022-07-06T13:35:13;98293.19;;;22.17;38.72
21401;BME280;18038;50.166;18.908;2022-07-06T13:38:20;98295.03;;;22.11;39.40
21401;BME280;18038;50.166;18.908;2022-07-06T13:41:26;98288.88;;;21.84;40.50
21401;BME280;18038;50.166;18.908;2022-07-06T13:44:32;98284.56;;;21.88;40.17
21401;BME280;18038;50.166;18.908;2022-07-06T13:47:40;98278.66;;;21.59;40.79
21401;BME280;18038;50.166;18.908;2022-07-06T13:50:46;98270.13;;;21.87;41.32
21401;BME280;18038;50.166;18.908;2022-07-06T13:53:52;98275.63;;;21.97;39.72
21401;BME280;18038;50.166;18.908;2022-07-06T13:57:02;98269.88;;;21.89;39.59
21401;BME280;18038;50.166;18.908;2022-07-06T14:00:10;98265.56;;;21.98;41.04
21401;BME280;18038;50.166;18.908;2022-07-06T14:03:20;98253.34;;;21.95;41.22
21401;BME280;18038;50.166;18.908;2022-07-06T14:06:32;98256.09;;;22.06;40.57
21401;BME280;18038;50.166;18.908;2022-07-06T14:09:38;98258.00;;;22.05;39.89
21401;BME280;18038;50.166;18.908;2022-07-06T14:12:44;98252.00;;;22.03;40.44
21401;BME280;18038;50.166;18.908;2022-07-06T14:15:50;98252.56;;;22.05;39.35
21401;BME280;18038;50.166;18.908;2022-07-06T14:18:58;98246.88;;;22.12;39.05
21401;BME280;18038;50.166;18.908;2022-07-06T14:22:04;98249.38;;;22.18;39.76
21401;BME280;18038;50.166;18.908;2022-07-06T14:25:10;98247.44;;;21.66;40.35
21401;BME280;18038;50.166;18.908;2022-07-06T14:28:16;98240.72;;;21.79;40.73
21401;BME280;18038;50.166;18.908;2022-07-06T14:31:22;98244.88;;;21.92;39.79
21401;BME280;18038;50.166;18.908;2022-07-06T14:34:31;98236.75;;;21.97;36.60
21401;BME280;18038;50.166;18.908;2022-07-06T14:37:36;98238.34;;;21.88;38.05
21401;BME280;18038;50.166;18.908;2022-07-06T14:40:43;98231.28;;;21.92;37.87
21401;BME280;18038;50.166;18.908;2022-07-06T14:43:50;98228.06;;;22.05;38.42
21401;BME280;18038;50.166;18.908;2022-07-06T14:46:55;98228.38;;;22.14;37.70
21401;BME280;18038;50.166;18.908;2022-07-06T14:50:04;98222.22;;;22.29;36.61
21401;BME280;18038;50.166;18.908;2022-07-06T14:53:10;98227.50;;;22.03;36.31
21401;BME280;18038;50.166;18.908;2022-07-06T14:56:16;98233.53;;;22.10;36.27
21401;BME280;18038;50.166;18.908;2022-07-06T14:59:21;98220.06;;;22.36;36.65
21401;BME280;18038;50.166;18.908;2022-07-06T15:02:27;98228.59;;;22.02;34.97
21401;BME280;18038;50.166;18.908;2022-07-06T15:05:42;98234.81;;;21.92;35.88
21401;BME280;18038;50.166;18.908;2022-07-06T15:08:57;98228.44;;;22.19;36.11
21401;BME280;18038;50.166;18.908;2022-07-06T15:12:04;98229.56;;;21.75;34.60
21401;BME280;18038;50.166;18.908;2022-07-06T15:15:10;98229.19;;;22.09;34.95
21401;BME280;18038;50.166;18.908;2022-07-06T15:18:36;98241.66;;;22.00;35.19
21401;BME280;18038;50.166;18.908;2022-07-06T15:21:47;98239.50;;;20.90;38.28
21401;BME280;18038;50.166;18.908;2022-07-06T15:24:53;98271.31;;;20.23;40.94
21401;BME280;18038;50.166;18.908;2022-07-06T15:27:59;98267.91;;;19.55;42.54
21401;BME280;18038;50.166;18.908;2022-07-06T15:31:16;98266.81;;;19.56;42.86
21401;BME280;18038;50.166;18.908;2022-07-06T15:34:30;98283.31;;;19.72;43.20
21401;BME280;18038;50.166;18.908;2022-07-06T15:37:39;98283.97;;;19.62;43.32
21401;BME280;18038;50.166;18.908;2022-07-06T15:40:58;98290.22;;;19.46;43.12
21401;BME280;18038;50.166;18.908;2022-07-06T15:44:06;98294.84;;;19.45;43.67
21401;BME280;18038;50.166;18.908;2022-07-06T15:47:12;98295.34;;;19.42;43.14
21401;BME280;18038;50.166;18.908;2022-07-06T15:50:18;98285.97;;;19.33;42.73
21401;BME280;18038;50.166;18.908;2022-07-06T15:53:27;98287.72;;;19.10;43.08
21401;BME280;18038;50.166;18.908;2022-07-06T15:56:33;98281.41;;;19.05;43.01
21401;BME280;18038;50.166;18.908;2022-07-06T15:59:40;98282.41;;;19.15;42.96
21401;BME280;18038;50.166;18.908;2022-07-06T16:02:46;98279.53;;;19.05;43.60
21401;BME280;18038;50.166;18.908;2022-07-06T16:05:52;98288.88;;;19.14;42.96
21401;BME280;18038;50.166;18.908;2022-07-06T16:09:16;98277.84;;;19.33;42.90
21401;BME280;18038;50.166;18.908;2022-07-06T16:12:24;98283.28;;;19.04;43.63
21401;BME280;18038;50.166;18.908;2022-07-06T16:15:30;98277.72;;;18.94;43.99
21401;BME280;18038;50.166;18.908;2022-07-06T16:18:36;98277.31;;;19.02;43.56
21401;BME280;18038;50.166;18.908;2022-07-06T16:21:44;98287.34;;;19.19;43.33
21401;BME280;18038;50.166;18.908;2022-07-06T16:24:52;98278.88;;;19.15;43.49
21401;BME280;18038;50.166;18.908;2022-07-06T16:28:06;98293.03;;;19.34;43.17
21401;BME280;18038;50.166;18.908;2022-07-06T16:31:12;98294.28;;;18.98;43.30